Terminal Aerodrome Forecast
Issued by NWS

Home | Current Version | Previous Version | Text Only | Print | Product List | Glossary On
Versions: 1 2 3 4 5 6 7 8 9 10 11 12 13 14 15 16 17 18
000
FTUS42 KILM 250500
TAFCRE
TAF
KCRE 250538Z 2506/2606 11005KT P6SM SCT040 SCT250
     FM250800 17005KT P6SM VCSH SCT020 BKN035
      TEMPO 2508/2512 BKN020
     FM251400 18011G20KT P6SM SCT015 BKN035
     FM252000 20014G25KT P6SM VCSH SCT020 BKN040
     FM260100 24006KT P6SM SCT020 BKN050=

USA.gov is the U.S. government's official web portal to all federal, state and local government web resources and services.